createdAt,value
2022-08-18T00:01:16.745Z,95264.78
2022-08-18T00:06:21.677Z,95274.97
2022-08-18T00:11:24.877Z,95274.16
2022-08-18T00:16:27.656Z,95261.34
2022-08-18T00:21:30.442Z,95267.91
2022-08-18T00:26:36.824Z,95259.44
2022-08-18T00:31:40.286Z,95255.56
2022-08-18T00:36:43.812Z,95273.69
2022-08-18T00:41:46.691Z,95292.31
2022-08-18T00:46:49.509Z,95289.00
2022-08-18T00:51:52.305Z,95269.41
2022-08-18T00:56:55.456Z,95268.56
2022-08-18T01:02:02.451Z,95267.78
2022-08-18T01:07:06.030Z,95284.13
2022-08-18T01:12:29.810Z,95297.44
2022-08-18T01:17:51.994Z,95288.69
2022-08-18T01:22:55.713Z,95284.19
2022-08-18T01:28:02.042Z,95297.66
2022-08-18T01:33:10.559Z,95301.69
2022-08-18T01:38:13.759Z,95296.94
2022-08-18T01:43:17.361Z,95293.81
2022-08-18T01:48:20.063Z,95285.28
2022-08-18T01:53:22.927Z,95279.81
2022-08-18T01:58:31.595Z,95274.22
2022-08-18T02:03:34.746Z,95263.09
2022-08-18T02:08:37.467Z,95269.19
2022-08-18T02:13:40.306Z,95270.25
2022-08-18T02:18:48.183Z,95273.31
2022-08-18T02:23:53.513Z,95278.78
2022-08-18T02:28:56.731Z,95285.34
2022-08-18T02:33:59.584Z,95265.38
2022-08-18T02:39:02.410Z,95262.66
2022-08-18T02:44:05.147Z,95271.34
2022-08-18T02:49:08.480Z,95263.59
2022-08-18T02:54:11.639Z,95252.47
2022-08-18T02:59:14.403Z,95242.66
2022-08-18T03:04:17.648Z,95251.53
2022-08-18T03:09:20.361Z,95253.59
2022-08-18T03:14:23.105Z,95255.00
2022-08-18T03:19:26.055Z,95249.69
2022-08-18T03:24:29.323Z,95243.06
2022-08-18T03:29:33.080Z,95235.63
2022-08-18T03:34:37.162Z,95237.59
2022-08-18T03:39:39.937Z,95220.22
2022-08-18T03:44:42.692Z,95229.03
2022-08-18T03:49:45.913Z,95230.13
2022-08-18T03:54:48.609Z,95236.19
2022-08-18T03:59:51.296Z,95224.44
2022-08-18T04:04:54.006Z,95230.38
2022-08-18T04:09:56.685Z,95245.41
2022-08-18T04:15:00.950Z,95232.97
2022-08-18T04:20:04.077Z,95232.00
2022-08-18T04:25:09.339Z,95208.00
2022-08-18T04:30:12.342Z,95201.88
2022-08-18T04:35:15.719Z,95193.59
2022-08-18T04:40:24.342Z,95208.84
2022-08-18T04:45:30.238Z,95205.13
2022-08-18T04:50:33.021Z,95214.19
2022-08-18T04:55:35.684Z,95203.28
2022-08-18T05:00:38.380Z,95227.94
2022-08-18T05:05:41.179Z,95245.81
2022-08-18T05:10:44.307Z,95234.16
2022-08-18T05:16:09.520Z,95224.94
2022-08-18T05:21:15.521Z,95221.75
2022-08-18T05:26:18.279Z,95223.66
2022-08-18T05:31:21.026Z,95253.31
2022-08-18T05:36:23.782Z,95272.69
2022-08-18T05:41:26.913Z,95279.72
2022-08-18T05:46:29.636Z,95262.25
2022-08-18T05:51:32.388Z,95270.19
2022-08-18T05:56:47.504Z,95273.84
2022-08-18T06:01:51.705Z,95291.63
2022-08-18T06:06:54.527Z,95281.13
2022-08-18T06:11:57.461Z,95277.03
2022-08-18T06:17:00.676Z,95279.63
2022-08-18T06:22:04.701Z,95284.06
2022-08-18T06:27:08.375Z,95282.97
2022-08-18T06:32:11.617Z,95282.44
2022-08-18T06:37:27.648Z,95278.44
2022-08-18T06:42:31.530Z,95278.03
2022-08-18T06:47:34.754Z,95263.28
2022-08-18T06:52:38.396Z,95263.09
2022-08-18T06:57:41.995Z,95257.41
2022-08-18T07:02:45.430Z,95238.28
2022-08-18T07:07:48.834Z,95247.19
2022-08-18T07:12:52.881Z,95237.94
2022-08-18T07:17:57.384Z,95238.81
2022-08-18T07:23:00.976Z,95250.63
2022-08-18T07:28:04.175Z,95256.63
2022-08-18T07:33:07.717Z,95247.09
2022-08-18T07:38:40.929Z,95240.31
2022-08-18T07:43:34.902Z,95245.47
2022-08-18T07:48:42.156Z,95249.75
2022-08-18T07:53:54.930Z,95227.00
2022-08-18T07:58:59.769Z,95241.81
2022-08-18T08:04:03.086Z,95242.84
2022-08-18T08:09:06.393Z,95244.75
2022-08-18T08:14:09.696Z,95243.22
2022-08-18T08:19:12.914Z,95249.81
2022-08-18T08:24:16.256Z,95255.94
2022-08-18T08:29:21.678Z,95252.50
2022-08-18T08:34:24.913Z,95247.44
2022-08-18T08:39:28.389Z,95230.88
2022-08-18T08:44:31.204Z,95212.03
2022-08-18T08:49:33.905Z,95215.19
2022-08-18T08:54:36.695Z,95212.22
2022-08-18T08:59:39.857Z,95205.81
2022-08-18T09:04:54.161Z,95202.22
2022-08-18T09:10:05.272Z,95190.31
2022-08-18T09:15:09.266Z,95189.81
2022-08-18T09:20:12.363Z,95195.25
2022-08-18T09:25:15.105Z,95198.81
2022-08-18T09:30:18.391Z,95225.38
2022-08-18T09:35:23.899Z,95194.97
2022-08-18T09:41:02.804Z,95190.06
2022-08-18T09:46:05.997Z,95187.25
2022-08-18T09:51:08.881Z,95185.56
2022-08-18T09:56:11.780Z,95183.84
2022-08-18T10:01:17.747Z,95199.34
2022-08-18T10:06:20.885Z,95191.00
2022-08-18T10:11:29.763Z,95189.34
2022-08-18T10:16:51.092Z,95194.50
2022-08-18T10:21:55.920Z,95200.72
2022-08-18T10:26:58.691Z,95199.28
2022-08-18T10:32:01.463Z,95194.41
2022-08-18T10:37:06.345Z,95198.47
2022-08-18T10:42:11.197Z,95200.63
2022-08-18T10:47:17.616Z,95182.06
2022-08-18T10:52:27.902Z,95178.72
2022-08-18T10:57:31.232Z,95168.50
2022-08-18T11:02:34.547Z,95167.13
2022-08-18T11:07:44.838Z,95159.00
2022-08-18T11:12:47.821Z,95152.50
2022-08-18T11:17:50.866Z,95141.81
2022-08-18T11:22:54.549Z,95138.66
2022-08-18T11:27:57.904Z,95129.28
2022-08-18T11:33:02.880Z,95115.22
2022-08-18T11:38:05.954Z,95104.19
2022-08-18T11:43:15.337Z,95113.25
2022-08-18T11:48:20.799Z,95088.44
2022-08-18T11:53:26.528Z,95080.56
2022-08-18T11:58:34.531Z,95052.94
2022-08-18T12:03:37.277Z,95017.13
2022-08-18T12:08:57.117Z,95029.38
2022-08-18T12:14:01.965Z,95011.25
2022-08-18T12:19:25.252Z,95016.63
2022-08-18T12:24:37.003Z,95041.31
2022-08-18T12:35:09.552Z,95015.53
2022-08-18T12:40:13.010Z,95028.59
2022-08-18T12:45:15.949Z,95027.00
2022-08-18T12:50:19.231Z,95023.84
2022-08-18T12:55:23.048Z,95040.38
2022-08-18T13:00:28.136Z,95036.78
2022-08-18T13:05:32.573Z,95021.66
2022-08-18T13:10:46.731Z,95032.31
2022-08-18T13:15:55.490Z,95018.72
2022-08-18T13:21:01.469Z,95000.44
2022-08-18T13:26:04.180Z,94983.00
2022-08-18T13:31:06.981Z,94995.81
2022-08-18T13:36:09.689Z,94981.66
2022-08-18T13:41:15.704Z,94988.81
2022-08-18T13:46:30.916Z,95000.59
2022-08-18T13:51:37.176Z,94993.94
2022-08-18T13:56:40.558Z,95009.66
2022-08-18T14:01:52.243Z,94990.00
2022-08-18T14:06:57.011Z,94966.00
2022-08-18T14:12:00.861Z,94949.03
2022-08-18T14:17:03.725Z,94925.44
2022-08-18T14:22:27.588Z,94925.03
2022-08-18T14:27:35.201Z,94909.69
2022-08-18T14:32:48.830Z,94908.53
2022-08-18T14:37:54.319Z,94898.28
2022-08-18T14:42:59.060Z,94901.06
2022-08-18T14:48:02.096Z,94899.88
2022-08-18T14:53:09.558Z,94902.63
2022-08-18T14:58:16.538Z,94901.41
2022-08-18T15:03:21.595Z,94891.47
2022-08-18T15:08:31.116Z,94889.22
2022-08-18T15:13:34.924Z,94887.25
2022-08-18T15:18:37.670Z,94889.22
2022-08-18T15:23:58.697Z,94893.97
2022-08-18T15:29:01.907Z,94895.53
2022-08-18T15:34:12.759Z,94914.03
2022-08-18T15:39:15.550Z,94912.75
2022-08-18T15:44:19.238Z,94910.38
2022-08-18T15:49:23.054Z,94900.34
2022-08-18T15:54:25.952Z,94892.63
2022-08-18T15:59:34.321Z,94878.59
2022-08-18T16:04:45.106Z,94876.53
2022-08-18T16:09:47.944Z,94870.31
2022-08-18T16:14:53.236Z,94860.47
2022-08-18T16:19:55.980Z,94862.16
2022-08-18T16:24:58.846Z,94865.78
2022-08-18T16:30:01.774Z,94868.59
2022-08-18T16:35:04.508Z,94869.00
2022-08-18T16:40:09.842Z,94868.84
2022-08-18T16:45:13.280Z,94869.28
2022-08-18T16:50:16.137Z,94873.75
2022-08-18T16:55:18.891Z,94877.53
2022-08-18T17:00:39.478Z,94861.03
2022-08-18T17:05:42.249Z,94857.06
2022-08-18T17:10:45.090Z,94864.28
2022-08-18T17:15:49.615Z,94877.13
2022-08-18T17:20:52.509Z,94885.88
2022-08-18T17:25:58.124Z,94910.34
2022-08-18T17:31:02.174Z,94935.78
2022-08-18T17:36:05.012Z,94944.53
2022-08-18T17:41:07.888Z,94980.06
2022-08-18T17:46:11.727Z,94996.09
2022-08-18T17:51:32.237Z,94981.72
2022-08-18T17:56:36.272Z,94979.97
2022-08-18T18:01:39.078Z,94978.31
2022-08-18T18:06:41.999Z,95003.97
2022-08-18T18:11:47.654Z,95010.75
2022-08-18T18:16:50.732Z,95018.09
2022-08-18T18:22:01.680Z,95028.09
2022-08-18T18:27:04.999Z,95032.81
2022-08-18T18:32:07.735Z,95032.06
2022-08-18T18:37:10.492Z,95043.59
2022-08-18T18:42:14.394Z,95036.53
2022-08-18T18:47:17.228Z,95053.19
2022-08-18T18:52:23.904Z,95047.97
2022-08-18T18:57:32.198Z,95046.00
2022-08-18T19:02:35.320Z,95049.63
2022-08-18T19:07:38.637Z,95064.47
2022-08-18T19:12:43.440Z,95072.44
2022-08-18T19:17:46.190Z,95094.63
2022-08-18T19:22:49.444Z,95121.41
2022-08-18T19:27:52.176Z,95124.97
2022-08-18T19:32:55.068Z,95134.94
2022-08-18T19:37:57.908Z,95139.41
2022-08-18T19:43:03.445Z,95144.53
2022-08-18T19:48:06.204Z,95140.75
2022-08-18T19:53:10.657Z,95139.56
2022-08-18T19:58:14.462Z,95146.47
2022-08-18T20:03:18.631Z,95139.47
2022-08-18T20:08:22.562Z,95140.16
2022-08-18T20:13:25.866Z,95144.59
2022-08-18T20:18:29.641Z,95130.78
2022-08-18T20:23:32.921Z,95114.34
2022-08-18T20:28:36.336Z,95099.94
2022-08-18T20:33:43.465Z,95080.34
2022-08-18T20:38:47.194Z,95084.56
2022-08-18T20:43:51.431Z,95113.38
2022-08-18T20:49:05.916Z,95145.66
2022-08-18T20:54:13.293Z,95147.50
2022-08-18T20:59:18.392Z,95160.25
2022-08-18T21:04:21.606Z,95185.16
2022-08-18T21:09:24.829Z,95195.59
2022-08-18T21:14:29.869Z,95196.25
2022-08-18T21:19:33.516Z,95200.19
2022-08-18T21:24:36.988Z,95194.75
2022-08-18T21:29:47.116Z,95181.69
2022-08-18T21:34:52.315Z,95169.28
2022-08-18T21:39:55.793Z,95157.25
2022-08-18T21:45:00.933Z,95156.78
2022-08-18T21:50:06.177Z,95151.75
2022-08-18T21:55:09.818Z,95149.59
2022-08-18T22:00:17.043Z,95160.63
2022-08-18T22:05:22.471Z,95175.09
2022-08-18T22:10:43.502Z,95175.13
2022-08-18T22:15:46.843Z,95189.44
2022-08-18T22:20:50.041Z,95183.84
2022-08-18T22:25:53.296Z,95178.97
2022-08-18T22:30:56.494Z,95172.16
2022-08-18T22:35:59.931Z,95156.94
2022-08-18T22:41:03.609Z,95114.53
2022-08-18T22:46:06.842Z,95101.84
2022-08-18T22:51:10.035Z,95092.09
2022-08-18T22:56:17.583Z,95072.97
2022-08-18T23:01:37.330Z,95066.88
2022-08-18T23:06:40.502Z,95075.78
2022-08-18T23:11:43.697Z,95062.97
2022-08-18T23:16:47.180Z,95069.78
2022-08-18T23:21:51.678Z,95085.03
2022-08-18T23:26:54.971Z,95077.59
2022-08-18T23:31:58.208Z,95101.88
2022-08-18T23:37:01.971Z,95107.34
2022-08-18T23:42:06.238Z,95107.81
2022-08-18T23:47:10.034Z,95134.81
2022-08-18T23:52:13.298Z,95155.69
2022-08-18T23:57:17.257Z,95175.97
